EDT,Max TemperatureF,Mean TemperatureF,Min TemperatureF,Max Dew PointF,MeanDew PointF,Min DewpointF,Max Humidity, Mean Humidity, Min Humidity, Max Sea Level PressureIn, Mean Sea Level PressureIn, Min Sea Level PressureIn, Max VisibilityMiles, Mean VisibilityMiles, Min VisibilityMiles, Max Wind SpeedMPH, Mean Wind SpeedMPH, Max Gust SpeedMPH,PrecipitationIn, CloudCover, Events, WindDirDegrees
2013-3-1,44,36,28,28,25,19,93,60,46,29.88,29.82,29.74,10,10,10,13,5,17,0.00,7,,296
2013-3-2,39,32,26,25,21,19,80,57,45,29.88,29.85,29.81,10,10,10,9,4,,0.00,8,,335
2013-3-3,46,34,21,21,18,16,86,57,32,29.92,29.85,29.78,10,10,10,14,3,20,0.00,4,,314
2013-3-4,50,34,17,18,13,10,86,49,22,30.03,29.97,29.92,10,10,10,16,4,23,0.00,0,,290
2013-3-5,51,37,23,36,22,14,93,58,30,30.06,29.95,29.72,10,9,1,10,2,,0.08,5,Rain-Snow,126
2013-3-6,33,33,33,32,30,30,93,88,87,29.70,29.57,29.51,4,2,1,13,8,17,0.00,8,Snow,18
2013-3-7,46,40,33,25,25,23,70,50,43,30.17,30.09,29.99,10,10,10,16,11,24,0.54,4,,318
2013-3-8,46,37,28,27,25,21,86,56,42,30.26,30.19,30.14,10,10,10,20,7,25,0.00,1,,329
2013-3-9,57,45,33,32,25,21,70,52,25,30.33,30.28,30.24,10,10,4,10,3,,0.00,0,,354
2013-3-10,64,46,28,37,26,19,86,48,21,30.31,30.25,30.19,10,10,10,8,2,16,0.00,0,,151
2013-3-11,64,50,37,48,43,36,93,71,52,30.21,30.08,29.91,10,9,2,12,5,18,0.00,4,,161
2013-3-12,66,52,37,61,49,30,94,76,54,29.94,29.80,29.70,10,10,4,13,8,21,0.60,5,Rain,102
2013-3-13,53,40,28,30,24,14,93,57,30,30.08,29.96,29.90,10,10,5,20,5,29,0.00,2,Rain,265
2013-3-14,51,40,28,18,15,12,60,40,21,30.15,30.09,30.03,10,10,10,18,9,29,0.00,1,,283
2013-3-15,59,42,24,34,23,16,74,47,30,30.10,29.96,29.80,10,10,10,15,5,21,0.00,0,,223
2013-3-16,69,54,39,54,42,34,94,73,46,29.86,29.74,29.59,10,10,5,15,4,29,0.33,4,Rain,224
2013-3-17,41,37,33,37,34,32,93,88,81,30.26,30.09,29.87,10,6,2,9,4,,0.10,7,Rain-Snow,34
2013-3-18,33,33,33,32,31,30,93,90,87,30.27,30.13,29.88,10,3,1,10,3,,0.38,8,Rain-Snow,40
2013-3-19,66,50,33,41,26,7,100,60,18,29.95,29.81,29.71,10,6,0,24,5,36,0.17,4,Fog,261
2013-3-20,55,42,28,19,13,7,59,30,18,30.01,29.90,29.74,10,10,10,16,7,26,0.00,1,,255
2013-3-21,42,35,28,27,16,9,80,48,28,29.91,29.79,29.74,10,10,5,21,8,26,0.00,6,Snow,335
2013-3-22,51,38,24,19,13,9,60,41,26,29.99,29.93,29.87,10,10,10,15,6,25,0.00,0,,260
2013-3-23,55,38,21,28,20,18,86,49,23,30.05,29.97,29.89,10,10,10,12,2,16,0.00,1,,273
2013-3-24,44,38,33,30,25,19,87,64,37,29.98,29.82,29.62,10,7,0,10,5,,0.00,3,Rain-Snow,44
2013-3-25,37,34,32,36,32,30,100,89,81,29.70,29.57,29.51,10,6,1,7,1,,0.66,8,Rain-Snow,274
2013-3-26,48,38,28,30,28,25,93,68,40,30.02,29.86,29.70,10,10,7,13,4,21,0.00,6,,292
2013-3-27,51,40,28,27,24,19,93,55,30,30.14,30.07,30.02,10,10,10,20,7,28,0.00,1,,288
2013-3-28,53,38,24,27,24,21,86,57,33,30.24,30.15,30.11,10,10,10,20,5,24,0.00,4,,281
2013-3-29,59,44,30,32,28,25,86,54,29,30.27,30.21,30.14,10,10,10,9,2,18,0.00,7,,290
2013-3-30,64,46,28,36,28,25,93,51,24,30.22,30.15,30.08,10,10,10,13,2,17,0.00,3,,267
2013-3-31,53,46,39,48,41,28,100,80,50,30.08,29.89,29.75,10,7,0,8,3,,0.03,4,Fog-Rain,173